This is the latest recevied weather packets stored in our database for station/object HB9Y1. If no packets are shown the sender has not sent any weather packets the latest 10 day(s).
| Time | Temp. | Humidity | Pressure | Rain* | Wind** | Luminosity | Snow |
|---|---|---|---|---|---|---|---|
| 1777951400 | 5.56° C | 74% | 1010 hPa | 0 mm | - | 0 W/m² | - |
| 1777950801 | 5.56° C | 75% | 1009.7 hPa | 0 mm | - | 0 W/m² | - |
| 1777948428 | 6.11° C | 67% | 1010.4 hPa | 0 mm | - | 0 W/m² | - |
| 1777946020 | 6.11° C | 62% | 1010.9 hPa | 0 mm | - | 0 W/m² | - |
| 1777943608 | 6.11° C | 60% | 1011.2 hPa | 0 mm | - | 0 W/m² | - |
| 1777941799 | 6.11° C | 61% | 1012 hPa | 0 mm | - | 0 W/m² | - |
| 1777929227 | 6.67° C | 65% | 1014.5 hPa | 0 mm | - | 0 W/m² | - |
| 1777926235 | 6.67° C | 65% | 1014.5 hPa | 0 mm | - | 0 W/m² | - |
| 1777922615 | 6.67° C | 64% | 1014.3 hPa | 0 mm | - | 0 W/m² | - |
| 1777914209 | 7.78° C | 66% | 1014.5 hPa | 0 mm | - | 19 W/m² | - |
| 1777912400 | 7.78° C | 64% | 1014.5 hPa | 0 mm | - | 64 W/m² | - |
| 1777910628 | 7.78° C | 66% | 1014.9 hPa | 0 mm | - | 59 W/m² | - |
| 1777906407 | 7.22° C | 73% | 1014.9 hPa | 0 mm | - | 64 W/m² | - |
| 1777903415 | 7.22° C | 72% | 1014.9 hPa | 0 mm | - | 111 W/m² | - |
| 1777898000 | 8.89° C | 66% | 1015.3 hPa | 0 mm | - | 179 W/m² | - |
| 1777896208 | 9.44° C | 63% | 1015.3 hPa | 0 mm | - | 252 W/m² | - |
| 1777889627 | 10° C | 58% | 1015.3 hPa | 0 mm | - | 448 W/m² | - |
| 1777887819 | 9.44° C | 60% | 1015.7 hPa | 0 mm | - | 287 W/m² | - |
| 1777887207 | 9.44° C | 60% | 1015.6 hPa | 0 mm | - | 333 W/m² | - |
| 1777885413 | 9.44° C | 60% | 1015.3 hPa | 0 mm | - | 327 W/m² | - |
| 1777878213 | 7.78° C | 61% | 1015.1 hPa | 0 mm | - | 202 W/m² | - |
| 1777874613 | 7.78° C | 57% | 1014.5 hPa | 0 mm | - | 90 W/m² | - |
| 1777868004 | 6.67° C | 59% | 1014.5 hPa | 0 mm | - | 1 W/m² | - |
| 1777865604 | 6.67° C | 55% | 1014.5 hPa | 0 mm | - | 0 W/m² | - |
| 1777862024 | 6.67° C | 55% | 1015.1 hPa | 0 mm | - | 0 W/m² | - |
* Rain latest hour (hover to see other rain measurements)
** Current wind speed in m/s (hover to see current wind gust speed)